Latest Weather Observations for Marion Reef

IDQ60801

Issued at 10:31 pm EST Sunday 14 February 2016 (issued every 30 minutes, with the page automatically refreshed every 10 minutes)

About weather observations | Map of weather stations | Latest weather observations for QLD | Other Formats
Station Details ID: 200704 Name: MARION REEF Lat: -19.10 Lon: 152.39 Height: 2.0 m
Data from the previous 72 hours. | See also: Recent months for locations in Queensland
Date/Time
EST
Temp
°C
App
Temp
°C
Dew
Point
Rel
Hum
%
Delta-T
°C
Wind Press
QNH
hPa
Press
MSL
hPa
Rain
since 9 am
mm
Dir
 
Spd
km/h
Gust
km/h
Spd
kts
Gust
kts
14/10:30pm 27.9 - - - - SSE 26 32 14 17 1007.1 - -
14/10:00pm 28.2 - - - - SSE 26 32 14 17 1007.2 1007.1 -
14/09:30pm 28.0 - - - - S 26 30 14 16 1007.3 - -
14/09:00pm 27.9 - - - - S 28 32 15 17 1007.1 1007.0 -
14/08:30pm 28.3 - - - - S 30 39 16 21 1006.6 - -
14/08:00pm 28.0 - - - - S 20 24 11 13 1006.3 1006.2 -
14/07:30pm 28.2 - - - - S 22 26 12 14 1005.9 - -
14/07:00pm 27.8 - - - - S 26 32 14 17 1005.5 1005.4 -
14/06:30pm 28.0 - - - - S 20 24 11 13 1005.1 - -
14/06:00pm 27.9 - - - - SSW 17 20 9 11 1004.6 1004.6 -
14/05:30pm 27.9 - - - - SW 20 24 11 13 1004.1 - -
14/05:00pm 27.8 - - - - SW 20 26 11 14 1003.8 1003.8 -
14/04:30pm 28.0 - - - - SW 24 28 13 15 1003.6 - -
14/04:00pm 28.2 - - - - SSW 22 24 12 13 1003.5 1003.5 -
14/03:30pm 28.0 - - - - SW 22 26 12 14 1003.6 - -
14/03:00pm 27.8 - - - - SSW 22 26 12 14 1003.7 1003.6 -
14/02:30pm 27.5 - - - - SSW 24 28 13 15 1003.8 - -
14/02:00pm 27.4 - - - - SW 26 32 14 17 1003.9 1003.8 -
14/01:30pm 27.6 - - - - SSW 20 24 11 13 1004.1 - -
14/01:00pm 27.3 - - - - SW 24 28 13 15 1004.3 1004.2 -
14/12:30pm 27.9 - - - - SSW 22 26 12 14 1004.7 - -
14/12:00pm 27.9 - - - - SSW 22 26 12 14 1004.9 1004.7 -
14/11:30am 27.7 - - - - SW 24 30 13 16 1005.1 - -
14/11:00am 27.5 - - - - SSW 19 41 10 22 1005.3 1005.2 -
14/10:30am 27.8 - - - - SW 24 26 13 14 1005.5 - -
14/10:00am 27.7 - - - - SW 22 28 12 15 1005.7 1005.5 -
14/09:30am 27.3 - - - - SSW 22 26 12 14 1005.9 - -
14/09:00am 27.6 - - - - SSW 24 30 13 16 1005.9 1005.8 -
14/08:30am 27.1 - - - - SSW 17 28 9 15 1005.9 - -
14/08:00am 27.6 - - - - SSW 20 24 11 13 1005.8 1005.8 -
14/07:30am 27.7 - - - - SW 24 28 13 15 1005.6 - -
14/07:00am 27.4 - - - - SSW 22 28 12 15 1005.3 1005.2 -
14/06:30am 27.4 - - - - SSW 22 26 12 14 1004.9 - -
14/06:00am 27.2 - - - - SSW 28 35 15 19 1004.5 1004.5 -
14/05:30am 27.5 - - - - SSW 30 35 16 19 1004.1 - -
14/05:00am 27.2 - - - - SSW 30 35 16 19 1003.9 1003.9 -
14/04:30am 27.5 - - - - SSW 32 35 17 19 1003.9 - -
14/04:00am 27.3 - - - - S 28 32 15 17 1003.9 1003.8 -
14/03:30am 27.4 - - - - S 30 33 16 18 1003.9 - -
14/03:00am 27.7 - - - - S 30 33 16 18 1003.8 1003.7 -
14/02:30am 27.7 - - - - S 30 33 16 18 1003.9 - -
14/02:00am 27.2 - - - - S 28 33 15 18 1004.1 1004.0 -
14/01:30am 27.2 - - - - S 32 35 17 19 1004.3 - -
14/01:00am 27.5 - - - - S 35 41 19 22 1004.5 1004.4 -
14/12:30am 27.6 - - - - S 33 39 18 21 1005.0 - -
14/12:00am 27.7 - - - - SSE 37 43 20 23 1005.3 1005.2 -
 
Date/Time
EST
Temp
°C
App
Temp
°C
Dew
Point
Rel
Hum
%
Delta-T
°C
Wind Press
QNH
hPa
Press
MSL
hPa
Rain
since 9 am
mm
Dir
 
Spd
km/h
Gust
km/h
Spd
kts
Gust
kts
13/11:30pm 27.6 - - - - SSE 39 44 21 24 1005.6 - -
13/11:00pm 27.7 - - - - S 39 43 21 23 1005.9 1005.8 -
13/10:30pm 28.2 - - - - S 35 43 19 23 1005.9 - -
13/10:00pm 27.7 - - - - S 37 43 20 23 1006.0 1005.9 -
13/09:30pm 28.1 - - - - S 35 41 19 22 1005.8 - -
13/09:00pm 28.2 - - - - S 33 37 18 20 1005.5 1005.5 -
13/08:30pm 28.0 - - - - S 33 39 18 21 1005.3 - -
13/08:00pm 28.3 - - - - S 35 39 19 21 1005.1 1005.0 -
13/07:30pm 28.2 - - - - S 32 39 17 21 1004.6 - -
13/07:00pm 28.1 - - - - S 33 39 18 21 1004.1 1004.1 -
13/06:30pm 28.1 - - - - S 33 39 18 21 1003.8 - -
13/06:00pm 28.1 - - - - S 33 37 18 20 1003.5 1003.5 -
13/05:30pm 27.8 - - - - S 32 41 17 22 1003.2 - -
13/05:00pm 27.5 - - - - S 35 43 19 23 1003.1 1003.0 -
13/04:30pm 27.4 - - - - S 32 43 17 23 1003.0 - -
13/04:00pm 28.0 - - - - S 33 39 18 21 1002.9 1002.8 -
13/03:30pm 28.2 - - - - S 35 39 19 21 1002.8 - -
13/03:00pm 28.3 - - - - S 35 41 19 22 1002.9 1002.7 -
13/02:30pm 27.9 - - - - S 35 41 19 22 1003.1 - -
13/02:17pm 27.6 - - - - S 37 41 20 22 1003.2 - -
13/02:00pm 27.0 - - - - ESE 19 26 10 14 1003.5 1003.4 -
13/01:30pm 26.5 - - - - SSE 26 33 14 18 1003.8 - -
13/01:09pm 26.3 - - - - SE 44 48 24 26 1003.7 - -
13/01:00pm 27.0 - - - - S 33 35 18 19 1004.0 1003.8 -
13/12:30pm 28.2 - - - - S 32 35 17 19 1004.1 - -
13/12:00pm 27.8 - - - - S 37 43 20 23 1004.4 1004.3 -
13/11:30am 27.9 - - - - S 37 43 20 23 1004.6 - -
13/11:00am 27.4 - - - - S 37 46 20 25 1004.8 1004.7 -
13/10:30am 27.3 - - - - S 41 48 22 26 1004.7 - -
13/10:07am 26.9 - - - - SSW 39 48 21 26 1004.9 - -
13/10:00am 27.4 - - - - S 30 43 16 23 1005.1 1005.0 -
13/09:37am 27.0 - - - - S 35 54 19 29 1005.2 - -
13/09:30am 26.3 - - - - S 35 39 19 21 1005.1 - -
13/09:20am 26.5 - - - - S 37 46 20 25 1005.3 - -
13/09:00am 25.7 - - - - SSE 22 46 12 25 1005.6 1005.3 -
13/08:51am 25.6 - - - - SE 46 57 25 31 1005.3 - -
13/08:42am 26.5 - - - - SSE 33 56 18 30 1005.3 - -
13/08:30am 27.9 - - - - S 30 35 16 19 1005.2 - -
13/08:00am 26.9 - - - - SSE 48 59 26 32 1005.0 1004.9 -
13/07:30am 28.4 - - - - S 41 48 22 26 1004.6 - -
13/07:00am 28.2 - - - - S 43 52 23 28 1004.2 1004.3 -
13/06:30am 28.0 - - - - S 43 50 23 27 1004.1 - -
13/06:11am 27.3 - - - - S 33 52 18 28 1004.0 - -
13/06:00am 26.5 - - - - S 41 50 22 27 1003.8 1003.8 -
13/05:31am 27.2 - - - - S 33 52 18 28 1003.4 - -
13/05:30am 27.2 - - - - S 32 48 17 26 1003.4 - -
13/05:28am 27.2 - - - - S 28 46 15 25 1003.4 - -
13/05:00am 27.0 - - - - S 37 41 20 22 1003.1 1003.1 -
13/04:30am 27.8 - - - - S 39 46 21 25 1002.8 - -
13/04:00am 27.8 - - - - S 39 44 21 24 1002.6 1002.6 -
13/03:30am 27.7 - - - - S 41 46 22 25 1002.8 - -
13/03:00am 27.7 - - - - S 41 50 22 27 1002.8 1002.8 -
13/02:30am 27.6 - - - - S 43 50 23 27 1002.9 - -
13/02:00am 26.8 - - - - S 41 50 22 27 1003.1 1002.9 -
13/01:30am 27.1 - - - - SSE 39 44 21 24 1003.6 - -
13/01:00am 26.3 - - - - S 50 63 27 34 1004.2 1004.0 -
13/12:30am 27.3 - - - - S 43 50 23 27 1004.5 - -
13/12:00am 27.4 - - - - S 48 57 26 31 1004.6 1004.4 -
 
Date/Time
EST
Temp
°C
App
Temp
°C
Dew
Point
Rel
Hum
%
Delta-T
°C
Wind Press
QNH
hPa
Press
MSL
hPa
Rain
since 9 am
mm
Dir
 
Spd
km/h
Gust
km/h
Spd
kts
Gust
kts
12/11:30pm 27.6 - - - - S 44 54 24 29 1004.8 - -
12/11:00pm 27.4 - - - - SSE 52 61 28 33 1005.1 1005.1 -
12/10:30pm 27.2 - - - - SSE 48 56 26 30 1005.5 - -
12/10:15pm 27.3 - - - - SSE 35 54 19 29 1005.5 - -
12/10:00pm 28.3 - - - - SSE 35 39 19 21 1005.5 1005.4 -
12/09:30pm 27.7 - - - - SE 39 46 21 25 1005.5 - -
12/09:00pm 28.4 - - - - SSE 32 37 17 20 1005.5 1005.4 -
12/08:30pm 28.2 - - - - S 33 43 18 23 1005.5 - -
12/08:00pm 27.5 - - - - SE 20 24 11 13 1005.4 1005.3 -
12/07:30pm 25.8 - - - - SE 32 44 17 24 1005.4 - -
12/07:00pm 26.1 - - - - SSE 30 41 16 22 1005.2 1005.1 -
12/06:30pm 25.6 - - - - ESE 22 43 12 23 1004.9 - -
12/06:00pm 26.0 - - - - SSE 32 43 17 23 1004.7 1004.5 -
12/05:30pm 27.2 - - - - SSW 28 33 15 18 1004.4 - -
12/05:00pm 27.4 - - - - S 24 28 13 15 1004.1 1004.0 -
12/04:30pm 26.6 - - - - S 22 28 12 15 1003.6 - -
12/04:00pm 26.0 - - - - S 28 32 15 17 1003.5 1003.5 -
12/03:47pm 26.1 - - - - S 39 43 21 23 1003.5 - -
12/03:30pm 26.5 - - - - SSW 28 39 15 21 1003.4 - -
12/03:00pm 26.1 - - - - SSW 32 39 17 21 1003.6 1003.5 -
12/02:45pm 26.8 - - - - S 28 43 15 23 1003.4 - -
12/02:30pm 26.6 - - - - S 19 22 10 12 1003.8 - -
12/02:00pm 26.4 - - - - CALM 0 7 0 4 1004.0 1003.8 -
12/01:30pm 25.5 - - - - S 32 39 17 21 1004.5 - -
12/01:00pm 25.7 - - - - SSW 30 41 16 22 1004.7 1004.6 -
12/12:54pm 26.1 - - - - SSW 33 52 18 28 1004.8 - -
12/12:46pm 26.0 - - - - SSW 41 52 22 28 1004.7 - -
12/12:30pm 26.3 - - - - WSW 35 41 19 22 1004.7 - -
12/12:00pm 26.4 - - - - WSW 28 33 15 18 1005.3 1005.0 -
12/11:30am 28.3 - - - - S 20 24 11 13 1005.6 - -
12/11:00am 28.0 - - - - SSE 24 30 13 16 1005.8 1005.8 -
12/10:30am 28.2 - - - - SSE 24 37 13 20 1006.1 - -
12/10:00am 27.6 - - - - SSE 22 28 12 15 1006.2 1006.1 -
12/09:32am 26.6 - - - - SSE 28 46 15 25 1006.5 - -
12/09:30am 26.2 - - - - SSE 30 46 16 25 1006.6 - -
12/09:27am 26.5 - - - - SSE 28 46 15 25 1006.6 - -
12/09:00am 27.9 - - - - SSW 22 30 12 16 1006.5 1006.5 -
12/08:30am 27.6 - - - - S 22 26 12 14 1006.6 - -
12/08:00am 27.3 - - - - S 28 35 15 19 1006.5 1006.4 -
12/07:30am 27.6 - - - - S 28 35 15 19 1006.2 - -
12/07:00am 27.6 - - - - S 32 41 17 22 1006.1 1006.0 -
12/06:30am 27.2 - - - - S 30 35 16 19 1005.9 - -
12/06:00am 26.6 - - - - SSE 35 48 19 26 1005.5 1005.4 -
12/05:54am 27.0 - - - - SSE 39 44 21 24 1005.2 - -
12/05:30am 27.0 - - - - S 26 33 14 18 1005.0 - -
12/05:00am 26.3 - - - - S 33 43 18 23 1004.9 1004.9 -
12/04:30am 27.3 - - - - S 32 35 17 19 1004.7 - -
12/04:00am 27.4 - - - - S 37 43 20 23 1004.7 1004.6 -
12/03:30am 27.7 - - - - S 37 43 20 23 1004.7 - -
12/03:00am 28.0 - - - - S 33 41 18 22 1004.7 1004.6 -
12/02:30am 28.0 - - - - S 33 41 18 22 1004.8 - -
12/02:00am 27.8 - - - - S 32 35 17 19 1004.9 1004.8 -
12/01:30am 28.0 - - - - SSE 30 37 16 20 1005.0 - -
12/01:00am 28.0 - - - - SSE 32 39 17 21 1005.5 1005.3 -
12/12:30am 28.3 - - - - SSE 32 37 17 20 1005.8 - -
12/12:00am 27.9 - - - - SSE 32 35 17 19 1006.3 1006.1 -
 
Date/Time
EST
Temp
°C
App
Temp
°C
Dew
Point
Rel
Hum
%
Delta-T
°C
Wind Press
QNH
hPa
Press
MSL
hPa
Rain
since 9 am
mm
Dir
 
Spd
km/h
Gust
km/h
Spd
kts
Gust
kts
11/11:30pm 28.2 - - - - SSE 32 39 17 21 1006.5 - -
11/11:00pm 28.4 - - - - S 32 39 17 21 1006.9 1006.7 -

Other Formats:

Comma delimited format used in spreadsheet applications
http://www.bom.gov.au/fwo/IDQ60801/IDQ60801.94298.axf

JavaScript Object Notation format (JSON) in row-major order
http://www.bom.gov.au/fwo/IDQ60801/IDQ60801.94298.json